sensor_id;sensor_type;location;lat;lon;timestamp;temperature;humidity
38398;DHT22;24179;52.094;4.408;2023-07-13T00:02:41;18.00;99.90
38398;DHT22;24179;52.094;4.408;2023-07-13T00:05:41;18.00;99.90
38398;DHT22;24179;52.094;4.408;2023-07-13T00:08:42;18.10;99.90
38398;DHT22;24179;52.094;4.408;2023-07-13T00:11:43;18.10;99.90
38398;DHT22;24179;52.094;4.408;2023-07-13T00:14:56;18.10;99.90
38398;DHT22;24179;52.094;4.408;2023-07-13T00:17:57;18.10;99.90
38398;DHT22;24179;52.094;4.408;2023-07-13T00:20:58;18.10;99.90
38398;DHT22;24179;52.094;4.408;2023-07-13T00:24:05;18.10;99.90
38398;DHT22;24179;52.094;4.408;2023-07-13T00:27:09;18.10;99.90
38398;DHT22;24179;52.094;4.408;2023-07-13T00:30:10;18.10;99.90
38398;DHT22;24179;52.094;4.408;2023-07-13T00:33:11;18.10;99.90
38398;DHT22;24179;52.094;4.408;2023-07-13T00:36:11;18.10;99.90
38398;DHT22;24179;52.094;4.408;2023-07-13T00:39:12;18.10;99.90
38398;DHT22;24179;52.094;4.408;2023-07-13T00:42:13;18.10;99.90
38398;DHT22;24179;52.094;4.408;2023-07-13T00:48:15;18.20;99.90
38398;DHT22;24179;52.094;4.408;2023-07-13T00:51:18;18.00;99.90
38398;DHT22;24179;52.094;4.408;2023-07-13T00:54:24;18.10;99.90
38398;DHT22;24179;52.094;4.408;2023-07-13T00:57:25;18.00;99.90
38398;DHT22;24179;52.094;4.408;2023-07-13T01:00:25;18.00;99.90
38398;DHT22;24179;52.094;4.408;2023-07-13T01:03:27;17.80;99.90
38398;DHT22;24179;52.094;4.408;2023-07-13T01:06:27;17.80;99.90
38398;DHT22;24179;52.094;4.408;2023-07-13T01:09:28;17.70;99.90
38398;DHT22;24179;52.094;4.408;2023-07-13T01:12:29;17.70;99.90
38398;DHT22;24179;52.094;4.408;2023-07-13T01:15:35;17.60;99.90
38398;DHT22;24179;52.094;4.408;2023-07-13T01:18:36;17.60;99.90
38398;DHT22;24179;52.094;4.408;2023-07-13T01:21:37;17.40;99.90
38398;DHT22;24179;52.094;4.408;2023-07-13T01:24:45;17.50;99.90
38398;DHT22;24179;52.094;4.408;2023-07-13T01:27:46;17.50;99.90
38398;DHT22;24179;52.094;4.408;2023-07-13T01:30:46;17.40;99.90
38398;DHT22;24179;52.094;4.408;2023-07-13T01:33:47;17.40;99.90
38398;DHT22;24179;52.094;4.408;2023-07-13T01:36:47;17.30;99.90
38398;DHT22;24179;52.094;4.408;2023-07-13T01:39:48;17.20;99.90
38398;DHT22;24179;52.094;4.408;2023-07-13T01:42:51;17.20;99.90
38398;DHT22;24179;52.094;4.408;2023-07-13T01:45:52;17.50;99.90
38398;DHT22;24179;52.094;4.408;2023-07-13T01:48:52;17.00;99.90
38398;DHT22;24179;52.094;4.408;2023-07-13T01:51:53;17.10;99.90
38398;DHT22;24179;52.094;4.408;2023-07-13T01:54:54;17.00;99.90
38398;DHT22;24179;52.094;4.408;2023-07-13T01:57:54;16.90;99.90
38398;DHT22;24179;52.094;4.408;2023-07-13T02:00:55;16.90;99.90
38398;DHT22;24179;52.094;4.408;2023-07-13T02:03:58;17.10;99.90
38398;DHT22;24179;52.094;4.408;2023-07-13T02:06:59;16.90;99.90
38398;DHT22;24179;52.094;4.408;2023-07-13T02:09:59;16.90;99.90
38398;DHT22;24179;52.094;4.408;2023-07-13T02:13:00;16.80;99.90
38398;DHT22;24179;52.094;4.408;2023-07-13T02:16:00;16.80;99.90
38398;DHT22;24179;52.094;4.408;2023-07-13T02:19:04;16.70;99.90
38398;DHT22;24179;52.094;4.408;2023-07-13T02:22:06;16.70;99.90
38398;DHT22;24179;52.094;4.408;2023-07-13T02:25:07;16.70;99.90
38398;DHT22;24179;52.094;4.408;2023-07-13T02:28:07;16.70;99.90
38398;DHT22;24179;52.094;4.408;2023-07-13T02:31:09;16.70;99.90
38398;DHT22;24179;52.094;4.408;2023-07-13T02:34:09;16.70;99.90
38398;DHT22;24179;52.094;4.408;2023-07-13T02:37:10;16.70;99.90
38398;DHT22;24179;52.094;4.408;2023-07-13T02:40:11;16.70;99.90
38398;DHT22;24179;52.094;4.408;2023-07-13T02:43:12;16.70;99.90
38398;DHT22;24179;52.094;4.408;2023-07-13T02:46:15;16.70;99.90
38398;DHT22;24179;52.094;4.408;2023-07-13T02:49:15;16.70;99.90
38398;DHT22;24179;52.094;4.408;2023-07-13T02:52:16;16.80;99.90
38398;DHT22;24179;52.094;4.408;2023-07-13T02:55:16;16.70;99.90
38398;DHT22;24179;52.094;4.408;2023-07-13T02:58:17;16.70;99.90
38398;DHT22;24179;52.094;4.408;2023-07-13T03:01:17;16.70;99.90
38398;DHT22;24179;52.094;4.408;2023-07-13T03:04:19;16.70;99.90
38398;DHT22;24179;52.094;4.408;2023-07-13T03:07:19;16.70;99.90
38398;DHT22;24179;52.094;4.408;2023-07-13T03:10:20;16.70;99.90
38398;DHT22;24179;52.094;4.408;2023-07-13T03:13:20;16.70;99.90
38398;DHT22;24179;52.094;4.408;2023-07-13T03:16:21;16.70;99.90
38398;DHT22;24179;52.094;4.408;2023-07-13T03:19:22;16.70;99.90
38398;DHT22;24179;52.094;4.408;2023-07-13T03:22:22;16.70;99.90
38398;DHT22;24179;52.094;4.408;2023-07-13T03:25:23;16.70;99.90
38398;DHT22;24179;52.094;4.408;2023-07-13T03:28:23;16.70;99.90
38398;DHT22;24179;52.094;4.408;2023-07-13T03:31:29;16.80;99.90
38398;DHT22;24179;52.094;4.408;2023-07-13T03:34:30;16.90;99.90
38398;DHT22;24179;52.094;4.408;2023-07-13T03:37:33;17.00;99.90
38398;DHT22;24179;52.094;4.408;2023-07-13T03:40:34;17.00;99.90
38398;DHT22;24179;52.094;4.408;2023-07-13T03:43:34;17.70;99.90
38398;DHT22;24179;52.094;4.408;2023-07-13T03:46:35;17.20;99.90
38398;DHT22;24179;52.094;4.408;2023-07-13T03:49:36;17.20;99.90
38398;DHT22;24179;52.094;4.408;2023-07-13T03:52:39;17.20;99.90
38398;DHT22;24179;52.094;4.408;2023-07-13T03:55:40;17.30;99.90
38398;DHT22;24179;52.094;4.408;2023-07-13T03:58:41;17.40;99.90
38398;DHT22;24179;52.094;4.408;2023-07-13T04:01:43;17.40;99.90
38398;DHT22;24179;52.094;4.408;2023-07-13T04:04:43;17.40;99.90
38398;DHT22;24179;52.094;4.408;2023-07-13T04:07:44;17.40;99.90
38398;DHT22;24179;52.094;4.408;2023-07-13T04:10:44;17.40;99.90
38398;DHT22;24179;52.094;4.408;2023-07-13T04:13:50;17.50;99.90
38398;DHT22;24179;52.094;4.408;2023-07-13T04:16:51;17.50;99.90
38398;DHT22;24179;52.094;4.408;2023-07-13T04:19:51;17.60;99.90
38398;DHT22;24179;52.094;4.408;2023-07-13T04:22:52;17.80;99.90
38398;DHT22;24179;52.094;4.408;2023-07-13T04:25:56;17.80;99.90
38398;DHT22;24179;52.094;4.408;2023-07-13T04:28:56;17.90;99.90
38398;DHT22;24179;52.094;4.408;2023-07-13T04:31:57;18.00;99.90
38398;DHT22;24179;52.094;4.408;2023-07-13T04:34:58;18.00;99.90
38398;DHT22;24179;52.094;4.408;2023-07-13T04:37:59;18.10;99.90
38398;DHT22;24179;52.094;4.408;2023-07-13T04:41:00;18.10;99.90
38398;DHT22;24179;52.094;4.408;2023-07-13T04:44:01;18.20;99.90
38398;DHT22;24179;52.094;4.408;2023-07-13T04:47:03;18.20;99.90
38398;DHT22;24179;52.094;4.408;2023-07-13T04:50:04;18.20;99.90
38398;DHT22;24179;52.094;4.408;2023-07-13T04:53:05;18.40;99.90
38398;DHT22;24179;52.094;4.408;2023-07-13T04:56:05;18.30;99.90
38398;DHT22;24179;52.094;4.408;2023-07-13T04:59:06;18.30;99.90
38398;DHT22;24179;52.094;4.408;2023-07-13T05:02:07;18.30;99.90
38398;DHT22;24179;52.094;4.408;2023-07-13T05:05:07;18.40;99.90
38398;DHT22;24179;52.094;4.408;2023-07-13T05:08:08;18.70;99.90
38398;DHT22;24179;52.094;4.408;2023-07-13T05:11:08;18.80;99.90
38398;DHT22;24179;52.094;4.408;2023-07-13T05:14:09;18.60;99.90
38398;DHT22;24179;52.094;4.408;2023-07-13T05:17:12;18.60;99.90
38398;DHT22;24179;52.094;4.408;2023-07-13T05:20:13;18.60;99.90
38398;DHT22;24179;52.094;4.408;2023-07-13T05:23:14;18.80;99.90
38398;DHT22;24179;52.094;4.408;2023-07-13T05:26:15;18.90;99.90
38398;DHT22;24179;52.094;4.408;2023-07-13T05:29:15;18.90;99.90
38398;DHT22;24179;52.094;4.408;2023-07-13T05:32:16;18.80;99.90
38398;DHT22;24179;52.094;4.408;2023-07-13T05:35:17;18.70;99.90
38398;DHT22;24179;52.094;4.408;2023-07-13T05:38:17;18.70;99.90
38398;DHT22;24179;52.094;4.408;2023-07-13T05:41:18;18.60;99.90
38398;DHT22;24179;52.094;4.408;2023-07-13T05:44:19;18.70;99.90
38398;DHT22;24179;52.094;4.408;2023-07-13T05:47:25;18.70;99.90
38398;DHT22;24179;52.094;4.408;2023-07-13T05:50:26;18.60;99.90
38398;DHT22;24179;52.094;4.408;2023-07-13T05:53:26;18.70;99.90
38398;DHT22;24179;52.094;4.408;2023-07-13T05:56:27;18.90;99.90
38398;DHT22;24179;52.094;4.408;2023-07-13T05:59:27;18.80;99.90
38398;DHT22;24179;52.094;4.408;2023-07-13T06:02:28;18.90;99.90
38398;DHT22;24179;52.094;4.408;2023-07-13T06:05:28;19.10;99.90
38398;DHT22;24179;52.094;4.408;2023-07-13T06:08:29;19.00;99.90
38398;DHT22;24179;52.094;4.408;2023-07-13T06:11:29;19.00;99.90
38398;DHT22;24179;52.094;4.408;2023-07-13T06:14:30;18.90;99.90
38398;DHT22;24179;52.094;4.408;2023-07-13T06:17:30;18.70;99.90
38398;DHT22;24179;52.094;4.408;2023-07-13T06:20:34;18.60;99.90
38398;DHT22;24179;52.094;4.408;2023-07-13T06:23:34;18.40;99.90
38398;DHT22;24179;52.094;4.408;2023-07-13T06:26:35;18.30;99.90
38398;DHT22;24179;52.094;4.408;2023-07-13T06:29:35;18.40;99.90
38398;DHT22;24179;52.094;4.408;2023-07-13T06:32:36;18.60;99.90
38398;DHT22;24179;52.094;4.408;2023-07-13T06:35:37;19.00;99.90
38398;DHT22;24179;52.094;4.408;2023-07-13T06:38:37;19.10;99.90
38398;DHT22;24179;52.094;4.408;2023-07-13T06:41:38;19.40;99.90
38398;DHT22;24179;52.094;4.408;2023-07-13T06:44:39;19.40;99.90
38398;DHT22;24179;52.094;4.408;2023-07-13T06:47:39;19.30;99.90
38398;DHT22;24179;52.094;4.408;2023-07-13T06:50:41;19.20;99.90
38398;DHT22;24179;52.094;4.408;2023-07-13T06:53:41;19.50;99.90
38398;DHT22;24179;52.094;4.408;2023-07-13T06:56:43;19.20;99.90
38398;DHT22;24179;52.094;4.408;2023-07-13T06:59:44;19.20;99.90
38398;DHT22;24179;52.094;4.408;2023-07-13T07:02:44;19.50;99.90
38398;DHT22;24179;52.094;4.408;2023-07-13T07:05:45;19.40;99.90
38398;DHT22;24179;52.094;4.408;2023-07-13T07:08:46;19.50;99.90
38398;DHT22;24179;52.094;4.408;2023-07-13T07:11:46;19.20;99.90
38398;DHT22;24179;52.094;4.408;2023-07-13T07:14:48;19.40;99.90
38398;DHT22;24179;52.094;4.408;2023-07-13T07:17:49;19.20;99.90
38398;DHT22;24179;52.094;4.408;2023-07-13T07:20:50;19.50;99.90
38398;DHT22;24179;52.094;4.408;2023-07-13T07:23:51;19.50;99.90
38398;DHT22;24179;52.094;4.408;2023-07-13T07:26:52;19.40;99.90
38398;DHT22;24179;52.094;4.408;2023-07-13T07:29:52;20.00;99.90
38398;DHT22;24179;52.094;4.408;2023-07-13T07:32:54;20.10;99.90
38398;DHT22;24179;52.094;4.408;2023-07-13T07:35:54;20.10;99.90
38398;DHT22;24179;52.094;4.408;2023-07-13T07:38:55;20.10;99.90
38398;DHT22;24179;52.094;4.408;2023-07-13T07:41:55;20.30;99.90
38398;DHT22;24179;52.094;4.408;2023-07-13T07:44:56;20.00;99.90
38398;DHT22;24179;52.094;4.408;2023-07-13T07:47:56;19.90;99.90
38398;DHT22;24179;52.094;4.408;2023-07-13T07:50:59;19.90;99.90
38398;DHT22;24179;52.094;4.408;2023-07-13T07:53:59;20.20;99.90
38398;DHT22;24179;52.094;4.408;2023-07-13T07:57:00;20.40;99.90
38398;DHT22;24179;52.094;4.408;2023-07-13T08:00:00;20.50;99.90
38398;DHT22;24179;52.094;4.408;2023-07-13T08:03:01;20.90;99.90
38398;DHT22;24179;52.094;4.408;2023-07-13T08:06:02;21.10;99.90
38398;DHT22;24179;52.094;4.408;2023-07-13T08:09:02;21.10;99.90
38398;DHT22;24179;52.094;4.408;2023-07-13T08:12:04;21.10;99.90
38398;DHT22;24179;52.094;4.408;2023-07-13T08:15:05;20.20;99.90
38398;DHT22;24179;52.094;4.408;2023-07-13T08:18:06;19.90;99.90
38398;DHT22;24179;52.094;4.408;2023-07-13T08:21:08;20.00;99.90
38398;DHT22;24179;52.094;4.408;2023-07-13T08:24:09;20.20;99.90
38398;DHT22;24179;52.094;4.408;2023-07-13T08:27:10;20.40;99.90
38398;DHT22;24179;52.094;4.408;2023-07-13T08:30:11;20.60;99.90
38398;DHT22;24179;52.094;4.408;2023-07-13T08:33:12;20.60;99.90
38398;DHT22;24179;52.094;4.408;2023-07-13T08:36:12;21.40;99.90
38398;DHT22;24179;52.094;4.408;2023-07-13T08:39:13;21.20;99.90
38398;DHT22;24179;52.094;4.408;2023-07-13T08:49:01;20.50;99.90
38398;DHT22;24179;52.094;4.408;2023-07-13T08:52:12;20.90;99.90
38398;DHT22;24179;52.094;4.408;2023-07-13T08:55:15;21.40;99.90
38398;DHT22;24179;52.094;4.408;2023-07-13T08:58:17;21.40;99.90
38398;DHT22;24179;52.094;4.408;2023-07-13T09:04:22;20.90;99.90
38398;DHT22;24179;52.094;4.408;2023-07-13T09:10:37;21.20;99.90
38398;DHT22;24179;52.094;4.408;2023-07-13T09:13:59;22.10;99.90
38398;DHT22;24179;52.094;4.408;2023-07-13T09:17:07;21.90;99.90
38398;DHT22;24179;52.094;4.408;2023-07-13T09:23:43;23.10;99.90
38398;DHT22;24179;52.094;4.408;2023-07-13T09:26:46;22.80;99.90
38398;DHT22;24179;52.094;4.408;2023-07-13T09:29:54;22.80;99.90
38398;DHT22;24179;52.094;4.408;2023-07-13T09:33:00;21.70;99.90
38398;DHT22;24179;52.094;4.408;2023-07-13T09:36:05;21.80;99.90
38398;DHT22;24179;52.094;4.408;2023-07-13T09:42:18;21.00;99.90
38398;DHT22;24179;52.094;4.408;2023-07-13T09:45:29;21.20;99.90
38398;DHT22;24179;52.094;4.408;2023-07-13T09:48:34;20.70;99.90
38398;DHT22;24179;52.094;4.408;2023-07-13T09:51:38;21.40;99.90
38398;DHT22;24179;52.094;4.408;2023-07-13T09:54:39;22.10;99.90
38398;DHT22;24179;52.094;4.408;2023-07-13T09:57:40;21.80;99.90
38398;DHT22;24179;52.094;4.408;2023-07-13T10:01:20;22.10;99.90
38398;DHT22;24179;52.094;4.408;2023-07-13T10:04:16;21.90;99.90
38398;DHT22;24179;52.094;4.408;2023-07-13T10:07:18;22.40;99.90
38398;DHT22;24179;52.094;4.408;2023-07-13T10:10:22;22.40;99.90
38398;DHT22;24179;52.094;4.408;2023-07-13T10:13:33;22.30;99.90
38398;DHT22;24179;52.094;4.408;2023-07-13T10:16:40;22.60;99.90
38398;DHT22;24179;52.094;4.408;2023-07-13T10:19:43;23.10;99.90
38398;DHT22;24179;52.094;4.408;2023-07-13T10:23:02;22.40;99.90
38398;DHT22;24179;52.094;4.408;2023-07-13T10:26:03;22.50;99.90
38398;DHT22;24179;52.094;4.408;2023-07-13T10:29:06;24.00;99.90
38398;DHT22;24179;52.094;4.408;2023-07-13T10:32:09;22.90;99.90
38398;DHT22;24179;52.094;4.408;2023-07-13T10:35:11;22.60;99.90
38398;DHT22;24179;52.094;4.408;2023-07-13T10:38:14;22.30;99.90
38398;DHT22;24179;52.094;4.408;2023-07-13T10:41:17;23.00;99.90
38398;DHT22;24179;52.094;4.408;2023-07-13T10:44:23;23.20;99.90
38398;DHT22;24179;52.094;4.408;2023-07-13T10:47:29;23.10;99.90
38398;DHT22;24179;52.094;4.408;2023-07-13T10:50:30;22.70;99.90
38398;DHT22;24179;52.094;4.408;2023-07-13T10:53:34;22.70;99.90
38398;DHT22;24179;52.094;4.408;2023-07-13T10:56:35;22.90;99.90
38398;DHT22;24179;52.094;4.408;2023-07-13T10:59:36;22.60;99.90
38398;DHT22;24179;52.094;4.408;2023-07-13T11:02:36;22.80;99.90
38398;DHT22;24179;52.094;4.408;2023-07-13T11:05:39;22.80;99.90
38398;DHT22;24179;52.094;4.408;2023-07-13T11:11:47;23.20;99.90
38398;DHT22;24179;52.094;4.408;2023-07-13T11:17:54;23.30;99.90
38398;DHT22;24179;52.094;4.408;2023-07-13T11:21:14;23.30;99.90
38398;DHT22;24179;52.094;4.408;2023-07-13T11:24:16;22.80;99.90
38398;DHT22;24179;52.094;4.408;2023-07-13T11:28:12;23.20;99.90
38398;DHT22;24179;52.094;4.408;2023-07-13T11:33:49;24.40;99.90
38398;DHT22;24179;52.094;4.408;2023-07-13T11:36:50;24.20;99.90
38398;DHT22;24179;52.094;4.408;2023-07-13T11:39:51;24.50;99.90
38398;DHT22;24179;52.094;4.408;2023-07-13T11:42:52;25.30;99.60
38398;DHT22;24179;52.094;4.408;2023-07-13T11:45:53;26.00;98.50
38398;DHT22;24179;52.094;4.408;2023-07-13T11:48:54;26.10;97.40
38398;DHT22;24179;52.094;4.408;2023-07-13T11:51:54;26.50;96.80
38398;DHT22;24179;52.094;4.408;2023-07-13T11:54:56;24.60;97.70
38398;DHT22;24179;52.094;4.408;2023-07-13T11:57:58;25.00;97.90
38398;DHT22;24179;52.094;4.408;2023-07-13T12:01:06;25.70;98.20
38398;DHT22;24179;52.094;4.408;2023-07-13T12:04:08;24.80;97.20
38398;DHT22;24179;52.094;4.408;2023-07-13T12:07:15;23.90;98.40
38398;DHT22;24179;52.094;4.408;2023-07-13T12:10:21;23.20;99.10
38398;DHT22;24179;52.094;4.408;2023-07-13T12:13:22;23.90;99.30
38398;DHT22;24179;52.094;4.408;2023-07-13T12:16:25;24.00;98.30
38398;DHT22;24179;52.094;4.408;2023-07-13T12:19:28;24.40;97.60
38398;DHT22;24179;52.094;4.408;2023-07-13T12:22:28;24.20;97.40
38398;DHT22;24179;52.094;4.408;2023-07-13T12:25:29;23.60;97.70
38398;DHT22;24179;52.094;4.408;2023-07-13T12:31:40;23.60;97.40
38398;DHT22;24179;52.094;4.408;2023-07-13T12:34:56;23.80;97.70
38398;DHT22;24179;52.094;4.408;2023-07-13T12:37:57;25.10;97.20
38398;DHT22;24179;52.094;4.408;2023-07-13T12:41:01;26.50;96.70
38398;DHT22;24179;52.094;4.408;2023-07-13T12:44:01;27.00;96.20
38398;DHT22;24179;52.094;4.408;2023-07-13T12:47:04;27.00;95.90
38398;DHT22;24179;52.094;4.408;2023-07-13T12:50:12;25.80;95.60
38398;DHT22;24179;52.094;4.408;2023-07-13T12:53:15;25.00;96.00
38398;DHT22;24179;52.094;4.408;2023-07-13T12:56:18;23.80;97.90
38398;DHT22;24179;52.094;4.408;2023-07-13T12:59:21;24.60;98.30
38398;DHT22;24179;52.094;4.408;2023-07-13T13:02:32;25.00;97.90
38398;DHT22;24179;52.094;4.408;2023-07-13T13:05:36;24.80;97.80
38398;DHT22;24179;52.094;4.408;2023-07-13T13:08:38;25.80;96.80
38398;DHT22;24179;52.094;4.408;2023-07-13T13:11:41;26.40;96.50
38398;DHT22;24179;52.094;4.408;2023-07-13T13:14:42;25.60;97.60
38398;DHT22;24179;52.094;4.408;2023-07-13T13:17:42;25.40;97.00
38398;DHT22;24179;52.094;4.408;2023-07-13T13:20:43;26.00;97.50
38398;DHT22;24179;52.094;4.408;2023-07-13T13:23:44;26.70;96.90
38398;DHT22;24179;52.094;4.408;2023-07-13T13:26:48;26.20;96.00
38398;DHT22;24179;52.094;4.408;2023-07-13T13:29:50;26.60;96.40
38398;DHT22;24179;52.094;4.408;2023-07-13T13:32:54;25.20;96.50
38398;DHT22;24179;52.094;4.408;2023-07-13T13:35:55;24.50;97.60
38398;DHT22;24179;52.094;4.408;2023-07-13T13:38:55;24.50;98.10
38398;DHT22;24179;52.094;4.408;2023-07-13T13:41:56;24.30;97.90
38398;DHT22;24179;52.094;4.408;2023-07-13T13:44:56;25.20;97.80
38398;DHT22;24179;52.094;4.408;2023-07-13T13:47:57;24.70;96.70
38398;DHT22;24179;52.094;4.408;2023-07-13T13:50:57;26.10;96.30
38398;DHT22;24179;52.094;4.408;2023-07-13T13:53:58;26.10;96.40
38398;DHT22;24179;52.094;4.408;2023-07-13T13:56:59;25.60;95.80
38398;DHT22;24179;52.094;4.408;2023-07-13T13:59:59;26.50;96.50
38398;DHT22;24179;52.094;4.408;2023-07-13T14:03:00;27.60;95.70
38398;DHT22;24179;52.094;4.408;2023-07-13T14:06:00;26.20;95.60
38398;DHT22;24179;52.094;4.408;2023-07-13T14:09:01;26.70;95.80
38398;DHT22;24179;52.094;4.408;2023-07-13T14:12:03;25.90;94.90
38398;DHT22;24179;52.094;4.408;2023-07-13T14:15:03;26.50;95.70
38398;DHT22;24179;52.094;4.408;2023-07-13T14:18:05;26.30;95.00
38398;DHT22;24179;52.094;4.408;2023-07-13T14:21:16;26.90;95.20
38398;DHT22;24179;52.094;4.408;2023-07-13T14:24:17;26.20;95.60
38398;DHT22;24179;52.094;4.408;2023-07-13T14:27:17;26.70;95.60
38398;DHT22;24179;52.094;4.408;2023-07-13T14:30:19;27.80;95.00
38398;DHT22;24179;52.094;4.408;2023-07-13T14:33:20;25.70;95.70
38398;DHT22;24179;52.094;4.408;2023-07-13T14:39:24;25.10;97.40
38398;DHT22;24179;52.094;4.408;2023-07-13T14:42:25;25.80;97.30
38398;DHT22;24179;52.094;4.408;2023-07-13T14:45:28;25.60;96.70
38398;DHT22;24179;52.094;4.408;2023-07-13T14:48:30;24.70;97.50
38398;DHT22;24179;52.094;4.408;2023-07-13T14:51:31;25.00;97.80
38398;DHT22;24179;52.094;4.408;2023-07-13T14:54:32;25.00;96.90
38398;DHT22;24179;52.094;4.408;2023-07-13T14:57:33;24.80;97.40
38398;DHT22;24179;52.094;4.408;2023-07-13T15:00:33;24.30;97.50
38398;DHT22;24179;52.094;4.408;2023-07-13T15:03:34;25.60;97.10
38398;DHT22;24179;52.094;4.408;2023-07-13T15:06:52;25.00;97.20
38398;DHT22;24179;52.094;4.408;2023-07-13T15:09:52;25.30;97.00
38398;DHT22;24179;52.094;4.408;2023-07-13T15:12:56;25.00;96.70
38398;DHT22;24179;52.094;4.408;2023-07-13T15:15:58;25.10;96.60
38398;DHT22;24179;52.094;4.408;2023-07-13T15:18:58;24.50;96.70
38398;DHT22;24179;52.094;4.408;2023-07-13T15:21:59;25.00;96.60
38398;DHT22;24179;52.094;4.408;2023-07-13T15:25:00;24.00;97.50
38398;DHT22;24179;52.094;4.408;2023-07-13T15:28:00;25.10;97.10
38398;DHT22;24179;52.094;4.408;2023-07-13T15:31:01;26.00;96.40
38398;DHT22;24179;52.094;4.408;2023-07-13T15:34:04;25.60;95.30
38398;DHT22;24179;52.094;4.408;2023-07-13T15:37:10;26.40;95.60
38398;DHT22;24179;52.094;4.408;2023-07-13T15:40:15;27.10;94.60
38398;DHT22;24179;52.094;4.408;2023-07-13T15:43:17;26.10;94.30
38398;DHT22;24179;52.094;4.408;2023-07-13T15:46:18;26.50;94.50
38398;DHT22;24179;52.094;4.408;2023-07-13T15:49:19;27.60;94.40
38398;DHT22;24179;52.094;4.408;2023-07-13T15:52:21;26.20;94.70
38398;DHT22;24179;52.094;4.408;2023-07-13T15:55:23;24.20;95.80
38398;DHT22;24179;52.094;4.408;2023-07-13T15:58:23;25.20;96.50
38398;DHT22;24179;52.094;4.408;2023-07-13T16:01:26;26.00;96.10
38398;DHT22;24179;52.094;4.408;2023-07-13T16:04:26;25.20;95.50
38398;DHT22;24179;52.094;4.408;2023-07-13T16:07:27;25.10;96.50
38398;DHT22;24179;52.094;4.408;2023-07-13T16:10:33;25.50;97.10
38398;DHT22;24179;52.094;4.408;2023-07-13T16:13:34;25.60;96.70
38398;DHT22;24179;52.094;4.408;2023-07-13T16:16:34;24.40;97.50
38398;DHT22;24179;52.094;4.408;2023-07-13T16:19:35;23.60;97.60
38398;DHT22;24179;52.094;4.408;2023-07-13T16:22:36;23.30;98.50
38398;DHT22;24179;52.094;4.408;2023-07-13T16:25:36;23.20;98.80
38398;DHT22;24179;52.094;4.408;2023-07-13T16:28:38;23.20;98.70
38398;DHT22;24179;52.094;4.408;2023-07-13T16:31:39;22.70;98.60
38398;DHT22;24179;52.094;4.408;2023-07-13T16:34:40;22.30;99.00
38398;DHT22;24179;52.094;4.408;2023-07-13T16:37:41;22.10;99.90
38398;DHT22;24179;52.094;4.408;2023-07-13T16:40:42;22.20;99.90
38398;DHT22;24179;52.094;4.408;2023-07-13T16:43:42;22.20;99.90
38398;DHT22;24179;52.094;4.408;2023-07-13T16:46:48;21.60;99.90
38398;DHT22;24179;52.094;4.408;2023-07-13T16:49:51;21.40;99.90
38398;DHT22;24179;52.094;4.408;2023-07-13T16:52:53;21.40;99.90
38398;DHT22;24179;52.094;4.408;2023-07-13T16:55:54;21.10;99.90
38398;DHT22;24179;52.094;4.408;2023-07-13T16:58:58;21.20;99.90
38398;DHT22;24179;52.094;4.408;2023-07-13T17:01:59;21.10;99.90
38398;DHT22;24179;52.094;4.408;2023-07-13T17:05:00;21.20;99.90
38398;DHT22;24179;52.094;4.408;2023-07-13T17:08:01;21.50;99.90
38398;DHT22;24179;52.094;4.408;2023-07-13T17:11:04;21.50;99.90
38398;DHT22;24179;52.094;4.408;2023-07-13T17:14:05;21.10;99.90
38398;DHT22;24179;52.094;4.408;2023-07-13T17:17:31;21.10;99.90
38398;DHT22;24179;52.094;4.408;2023-07-13T17:20:35;21.20;99.90
38398;DHT22;24179;52.094;4.408;2023-07-13T17:23:42;21.40;99.90
38398;DHT22;24179;52.094;4.408;2023-07-13T17:26:43;21.20;99.90
38398;DHT22;24179;52.094;4.408;2023-07-13T17:29:44;21.10;99.90
38398;DHT22;24179;52.094;4.408;2023-07-13T17:32:49;21.20;99.90
38398;DHT22;24179;52.094;4.408;2023-07-13T17:35:52;20.90;99.90
38398;DHT22;24179;52.094;4.408;2023-07-13T17:38:55;20.90;99.90
38398;DHT22;24179;52.094;4.408;2023-07-13T17:41:57;20.90;99.90
38398;DHT22;24179;52.094;4.408;2023-07-13T17:44:57;20.60;99.90
38398;DHT22;24179;52.094;4.408;2023-07-13T17:47:58;20.60;99.90
38398;DHT22;24179;52.094;4.408;2023-07-13T17:51:03;20.40;99.90
38398;DHT22;24179;52.094;4.408;2023-07-13T17:54:07;20.60;99.90
38398;DHT22;24179;52.094;4.408;2023-07-13T17:57:09;20.60;99.90
38398;DHT22;24179;52.094;4.408;2023-07-13T18:00:11;20.50;99.90
38398;DHT22;24179;52.094;4.408;2023-07-13T18:03:28;20.20;99.90
38398;DHT22;24179;52.094;4.408;2023-07-13T18:06:33;20.30;99.90
38398;DHT22;24179;52.094;4.408;2023-07-13T18:09:35;20.30;99.90
38398;DHT22;24179;52.094;4.408;2023-07-13T18:12:37;20.20;99.90
38398;DHT22;24179;52.094;4.408;2023-07-13T18:15:37;20.30;99.90
38398;DHT22;24179;52.094;4.408;2023-07-13T18:18:40;20.40;99.90
38398;DHT22;24179;52.094;4.408;2023-07-13T18:21:41;20.20;99.90
38398;DHT22;24179;52.094;4.408;2023-07-13T18:24:42;20.20;99.90
38398;DHT22;24179;52.094;4.408;2023-07-13T18:27:46;20.10;99.90
38398;DHT22;24179;52.094;4.408;2023-07-13T18:30:54;20.10;99.90
38398;DHT22;24179;52.094;4.408;2023-07-13T18:33:57;20.10;99.90
38398;DHT22;24179;52.094;4.408;2023-07-13T18:37:17;20.10;99.90
38398;DHT22;24179;52.094;4.408;2023-07-13T18:40:19;20.10;99.90
38398;DHT22;24179;52.094;4.408;2023-07-13T18:43:22;20.10;99.90
38398;DHT22;24179;52.094;4.408;2023-07-13T18:46:27;20.20;99.90
38398;DHT22;24179;52.094;4.408;2023-07-13T18:49:28;20.00;99.90
38398;DHT22;24179;52.094;4.408;2023-07-13T18:52:29;19.80;99.90
38398;DHT22;24179;52.094;4.408;2023-07-13T18:55:30;19.70;99.90
38398;DHT22;24179;52.094;4.408;2023-07-13T18:58:31;19.80;99.90
38398;DHT22;24179;52.094;4.408;2023-07-13T19:01:33;19.70;99.90
38398;DHT22;24179;52.094;4.408;2023-07-13T19:04:39;19.70;99.90
38398;DHT22;24179;52.094;4.408;2023-07-13T19:07:40;19.60;99.90
38398;DHT22;24179;52.094;4.408;2023-07-13T19:10:41;19.60;99.90
38398;DHT22;24179;52.094;4.408;2023-07-13T19:13:42;19.70;99.90
38398;DHT22;24179;52.094;4.408;2023-07-13T19:16:44;19.60;99.90
38398;DHT22;24179;52.094;4.408;2023-07-13T19:19:45;19.60;99.90
38398;DHT22;24179;52.094;4.408;2023-07-13T19:22:46;19.50;99.90
38398;DHT22;24179;52.094;4.408;2023-07-13T19:25:47;19.50;99.90
38398;DHT22;24179;52.094;4.408;2023-07-13T19:28:49;20.00;99.90
38398;DHT22;24179;52.094;4.408;2023-07-13T19:31:50;19.30;99.90
38398;DHT22;24179;52.094;4.408;2023-07-13T19:34:51;19.30;99.90
38398;DHT22;24179;52.094;4.408;2023-07-13T19:37:53;19.30;99.90
38398;DHT22;24179;52.094;4.408;2023-07-13T19:40:53;19.30;99.90
38398;DHT22;24179;52.094;4.408;2023-07-13T19:43:56;19.20;99.90
38398;DHT22;24179;52.094;4.408;2023-07-13T19:46:59;19.30;99.90
38398;DHT22;24179;52.094;4.408;2023-07-13T19:49:59;19.10;99.90